createdAt,value
2023-04-15T00:01:37.966Z,7.57
2023-04-15T00:04:05.245Z,9.30
2023-04-15T00:06:31.753Z,10.17
2023-04-15T00:08:58.445Z,8.30
2023-04-15T00:11:25.055Z,10.50
2023-04-15T00:13:51.461Z,8.93
2023-04-15T00:16:17.908Z,9.23
2023-04-15T00:18:44.570Z,8.23
2023-04-15T00:21:11.036Z,8.23
2023-04-15T00:23:37.716Z,8.30
2023-04-15T00:26:04.107Z,8.10
2023-04-15T00:28:31.102Z,7.80
2023-04-15T00:30:57.990Z,8.60
2023-04-15T00:33:24.454Z,7.57
2023-04-15T00:35:50.973Z,9.30
2023-04-15T00:38:17.736Z,7.97
2023-04-15T00:40:44.404Z,7.47
2023-04-15T00:43:10.777Z,7.00
2023-04-15T00:45:37.354Z,7.77
2023-04-15T00:48:05.461Z,6.43
2023-04-15T00:50:32.189Z,7.00
2023-04-15T00:52:58.546Z,8.30
2023-04-15T00:55:25.855Z,6.13
2023-04-15T00:57:52.657Z,6.90
2023-04-15T01:00:20.208Z,8.20
2023-04-15T01:02:47.180Z,8.30
2023-04-15T01:05:13.750Z,7.77
2023-04-15T01:07:40.129Z,6.13
2023-04-15T01:10:08.444Z,5.97
2023-04-15T01:12:35.889Z,6.40
2023-04-15T01:15:02.537Z,7.27
2023-04-15T01:17:29.417Z,7.07
2023-04-15T01:19:59.756Z,6.97
2023-04-15T01:22:27.689Z,8.10
2023-04-15T01:25:02.446Z,7.30
2023-04-15T01:30:10.745Z,8.83
2023-04-15T01:32:37.543Z,7.47
2023-04-15T01:35:04.072Z,7.63
2023-04-15T01:37:31.063Z,7.23
2023-04-15T01:39:58.063Z,6.97
2023-04-15T01:42:24.483Z,7.23
2023-04-15T01:44:51.062Z,9.17
2023-04-15T01:47:17.632Z,8.83
2023-04-15T01:49:44.018Z,8.30
2023-04-15T01:52:10.437Z,9.70
2023-04-15T01:54:36.828Z,7.53
2023-04-15T01:57:03.831Z,7.67
2023-04-15T01:59:31.305Z,8.77
2023-04-15T02:01:57.914Z,7.90
2023-04-15T02:04:24.370Z,8.40
2023-04-15T02:14:12.716Z,9.13
2023-04-15T02:16:39.222Z,10.10
2023-04-15T02:19:05.621Z,7.43
2023-04-15T02:21:32.093Z,7.67
2023-04-15T02:23:58.467Z,8.30
2023-04-15T02:26:25.337Z,10.47
2023-04-15T02:28:51.692Z,8.33
2023-04-15T02:31:18.172Z,7.70
2023-04-15T02:33:44.684Z,7.43
2023-04-15T02:36:12.721Z,8.13
2023-04-15T02:38:41.266Z,8.33
2023-04-15T02:41:08.568Z,7.80
2023-04-15T02:43:34.935Z,10.00
2023-04-15T02:46:01.322Z,9.87
2023-04-15T02:48:27.758Z,8.30
2023-04-15T02:50:54.146Z,8.77
2023-04-15T02:53:20.830Z,8.40
2023-04-15T02:55:47.589Z,8.63
2023-04-15T02:58:13.957Z,9.60
2023-04-15T03:00:40.354Z,9.63
2023-04-15T03:03:07.089Z,8.40
2023-04-15T03:05:33.747Z,8.23
2023-04-15T03:08:01.459Z,8.13
2023-04-15T03:10:28.423Z,8.83
2023-04-15T03:12:55.022Z,8.17
2023-04-15T03:15:21.422Z,9.10
2023-04-15T03:17:49.859Z,8.50
2023-04-15T03:20:16.911Z,8.60
2023-04-15T03:22:43.704Z,9.63
2023-04-15T03:25:10.155Z,9.13
2023-04-15T03:27:36.555Z,8.50
2023-04-15T03:30:03.371Z,10.40
2023-04-15T03:32:29.848Z,8.17
2023-04-15T03:34:56.271Z,9.20
2023-04-15T03:37:22.655Z,9.60
2023-04-15T03:39:49.029Z,8.13
2023-04-15T03:42:15.620Z,8.53
2023-04-15T03:44:42.208Z,9.53
2023-04-15T03:47:09.716Z,9.03
2023-04-15T03:49:37.191Z,10.43
2023-04-15T03:52:03.846Z,11.03
2023-04-15T03:54:30.375Z,10.13
2023-04-15T03:56:56.958Z,11.50
2023-04-15T03:59:23.481Z,13.40
2023-04-15T04:01:50.391Z,11.03
2023-04-15T04:04:16.948Z,13.17
2023-04-15T04:06:43.385Z,15.73
2023-04-15T04:09:09.749Z,14.43
2023-04-15T04:11:37.525Z,14.27
2023-04-15T04:14:03.937Z,17.47
2023-04-15T04:16:30.528Z,15.30
2023-04-15T04:18:56.924Z,15.43
2023-04-15T04:21:23.451Z,19.30
2023-04-15T04:23:50.942Z,12.23
2023-04-15T04:26:17.378Z,15.77
2023-04-15T04:28:44.108Z,15.97
2023-04-15T04:31:10.894Z,16.03
2023-04-15T04:33:37.858Z,13.43
2023-04-15T04:36:04.635Z,13.17
2023-04-15T04:38:31.064Z,14.40
2023-04-15T04:40:57.450Z,14.00
2023-04-15T04:43:24.067Z,16.00
2023-04-15T04:45:50.477Z,14.37
2023-04-15T04:48:17.328Z,12.70
2023-04-15T04:50:44.784Z,14.00
2023-04-15T04:53:12.804Z,17.00
2023-04-15T04:55:39.174Z,15.27
2023-04-15T04:58:06.003Z,13.30
2023-04-15T05:00:32.484Z,13.97
2023-04-15T05:02:59.441Z,15.57
2023-04-15T05:05:26.096Z,17.40
2023-04-15T05:07:52.788Z,14.67
2023-04-15T05:10:19.191Z,13.27
2023-04-15T05:12:46.315Z,13.13
2023-04-15T05:15:12.757Z,14.17
2023-04-15T05:17:39.227Z,16.37
2023-04-15T05:20:06.246Z,13.83
2023-04-15T05:22:32.662Z,13.07
2023-04-15T05:24:59.269Z,12.17
2023-04-15T05:27:25.986Z,15.23
2023-04-15T05:29:52.748Z,11.70
2023-04-15T05:32:19.196Z,15.53
2023-04-15T05:34:45.858Z,15.83
2023-04-15T05:37:12.709Z,14.00
2023-04-15T05:39:39.413Z,10.83
2023-04-15T05:42:06.171Z,12.93
2023-04-15T05:44:33.106Z,9.70
2023-04-15T05:46:59.672Z,9.10
2023-04-15T05:49:26.137Z,8.27
2023-04-15T05:51:52.679Z,8.77
2023-04-15T05:54:20.239Z,8.67
2023-04-15T05:56:46.816Z,9.07
2023-04-15T05:59:13.272Z,11.20
2023-04-15T06:01:40.016Z,9.47
2023-04-15T06:04:06.898Z,8.37
2023-04-15T06:06:33.422Z,8.07
2023-04-15T06:09:00.035Z,7.97
2023-04-15T06:11:27.398Z,7.87
2023-04-15T06:13:54.010Z,9.27
2023-04-15T06:16:20.483Z,8.17
2023-04-15T06:18:47.223Z,11.13
2023-04-15T06:21:13.691Z,7.13
2023-04-15T06:23:41.491Z,8.37
2023-04-15T06:26:08.177Z,8.43
2023-04-15T06:28:34.962Z,7.77
2023-04-15T06:31:01.927Z,6.03
2023-04-15T06:33:28.536Z,6.77
2023-04-15T06:35:54.955Z,7.10
2023-04-15T06:38:21.567Z,7.13
2023-04-15T06:40:48.036Z,6.90
2023-04-15T06:43:15.240Z,6.03
2023-04-15T06:45:41.994Z,8.90
2023-04-15T06:48:08.400Z,6.23
2023-04-15T06:50:35.696Z,6.60
2023-04-15T06:53:02.125Z,6.10
2023-04-15T06:55:28.564Z,8.03
2023-04-15T06:57:54.924Z,8.10
2023-04-15T07:00:21.432Z,9.53
2023-04-15T07:02:48.060Z,10.00
2023-04-15T07:05:14.536Z,6.90
2023-04-15T07:07:40.958Z,8.17
2023-04-15T07:10:07.883Z,5.60
2023-04-15T07:12:35.835Z,6.40
2023-04-15T07:15:02.231Z,5.47
2023-04-15T07:17:28.644Z,6.27
2023-04-15T07:19:55.474Z,5.63
2023-04-15T07:22:21.884Z,5.30
2023-04-15T07:24:48.252Z,5.57
2023-04-15T07:27:14.633Z,6.07
2023-04-15T07:29:41.359Z,6.23
2023-04-15T07:32:07.784Z,5.70
2023-04-15T07:34:34.148Z,5.60
2023-04-15T07:37:00.566Z,7.23
2023-04-15T07:39:27.301Z,4.43
2023-04-15T07:41:53.667Z,4.70
2023-04-15T07:44:20.115Z,4.80
2023-04-15T07:46:46.558Z,5.43
2023-04-15T07:49:13.435Z,5.70
2023-04-15T07:51:39.841Z,6.23
2023-04-15T07:54:06.204Z,4.77
2023-04-15T07:56:32.732Z,5.03
2023-04-15T07:58:59.221Z,4.60
2023-04-15T08:01:25.809Z,8.50
2023-04-15T08:03:52.543Z,5.47
2023-04-15T08:06:19.624Z,4.70
2023-04-15T08:08:46.107Z,6.50
2023-04-15T08:11:13.456Z,6.40
2023-04-15T08:13:39.821Z,6.73
2023-04-15T08:16:24.488Z,5.07
2023-04-15T08:18:52.756Z,8.33
2023-04-15T08:21:20.188Z,6.20
2023-04-15T08:23:49.367Z,5.43
2023-04-15T08:26:16.384Z,8.50
2023-04-15T08:28:46.624Z,11.37
2023-04-15T08:31:14.995Z,10.97
2023-04-15T08:33:41.681Z,7.27
2023-04-15T08:36:08.479Z,3.63
2023-04-15T08:38:35.021Z,6.10
2023-04-15T08:41:07.456Z,4.80
2023-04-15T08:43:35.513Z,4.90
2023-04-15T08:46:02.441Z,5.80
2023-04-15T08:48:32.487Z,4.83
2023-04-15T08:50:59.475Z,5.20
2023-04-15T08:53:26.415Z,3.37
2023-04-15T08:55:56.453Z,4.00
2023-04-15T08:58:24.620Z,3.90
2023-04-15T09:00:51.463Z,4.47
2023-04-15T09:03:19.099Z,4.10
2023-04-15T09:05:47.186Z,3.87
2023-04-15T09:08:13.695Z,3.67
2023-04-15T09:10:40.156Z,3.63
2023-04-15T09:13:06.872Z,5.17
2023-04-15T09:15:34.319Z,3.47
2023-04-15T09:18:00.739Z,41.53
2023-04-15T09:20:27.324Z,3.60
2023-04-15T09:22:53.713Z,3.33
2023-04-15T09:25:22.897Z,2.60
2023-04-15T09:27:50.358Z,4.07
2023-04-15T09:30:17.400Z,3.30
2023-04-15T09:32:50.005Z,3.20
2023-04-15T09:35:16.695Z,3.20
2023-04-15T09:37:43.104Z,3.10
2023-04-15T09:40:10.183Z,5.97
2023-04-15T09:42:37.705Z,2.53
2023-04-15T09:45:13.323Z,3.90
2023-04-15T09:47:40.171Z,2.33
2023-04-15T09:50:07.042Z,3.50
2023-04-15T09:52:33.442Z,2.97
2023-04-15T09:55:00.938Z,2.40
2023-04-15T09:57:36.311Z,2.83
2023-04-15T10:00:11.333Z,2.23
2023-04-15T10:02:39.942Z,2.23
2023-04-15T10:05:07.358Z,2.63
2023-04-15T10:07:35.107Z,3.13
2023-04-15T10:10:03.633Z,2.20
2023-04-15T10:12:31.250Z,2.50
2023-04-15T10:15:01.545Z,2.57
2023-04-15T10:17:31.595Z,3.97
2023-04-15T10:20:00.520Z,2.37
2023-04-15T10:22:28.627Z,2.60
2023-04-15T10:24:56.623Z,2.87
2023-04-15T10:27:23.954Z,2.37
2023-04-15T10:29:51.362Z,2.33
2023-04-15T10:32:20.610Z,2.30
2023-04-15T10:34:49.047Z,2.00
2023-04-15T10:37:21.623Z,2.40
2023-04-15T10:39:48.552Z,2.10
2023-04-15T10:42:18.112Z,2.57
2023-04-15T10:44:56.935Z,2.07
2023-04-15T10:47:23.485Z,2.43
2023-04-15T10:49:51.460Z,2.57
2023-04-15T10:52:24.471Z,2.00
2023-04-15T10:55:03.218Z,2.13
2023-04-15T10:57:36.268Z,2.93
2023-04-15T11:00:15.848Z,1.60
2023-04-15T11:03:06.190Z,1.50
2023-04-15T11:05:41.982Z,1.50
2023-04-15T11:08:12.986Z,1.37
2023-04-15T11:10:39.280Z,1.60
2023-04-15T11:13:17.186Z,1.30
2023-04-15T11:15:48.275Z,1.20
2023-04-15T11:18:16.577Z,1.27
2023-04-15T11:20:45.274Z,0.80
2023-04-15T11:23:15.144Z,1.33
2023-04-15T11:25:43.068Z,0.97
2023-04-15T11:28:10.916Z,1.10
2023-04-15T11:30:38.664Z,0.93
2023-04-15T11:33:07.293Z,1.10
2023-04-15T11:35:34.550Z,1.10
2023-04-15T11:38:05.319Z,1.40
2023-04-15T11:40:33.408Z,1.20
2023-04-15T11:43:12.035Z,1.00
2023-04-15T11:45:48.407Z,0.90
2023-04-15T11:48:15.455Z,0.87
2023-04-15T11:50:41.838Z,1.03
2023-04-15T11:53:10.410Z,0.90
2023-04-15T11:55:48.043Z,0.90
2023-04-15T11:58:21.979Z,0.70
2023-04-15T12:00:53.988Z,0.90
2023-04-15T12:03:27.651Z,0.80
2023-04-15T12:06:04.837Z,1.00
2023-04-15T12:09:09.684Z,0.90
2023-04-15T12:11:43.537Z,1.33
2023-04-15T12:14:15.703Z,0.80
2023-04-15T12:16:49.415Z,1.37
2023-04-15T12:19:24.477Z,0.80
2023-04-15T12:21:51.213Z,0.80
2023-04-15T12:24:22.736Z,0.73
2023-04-15T12:26:54.847Z,0.77
2023-04-15T12:29:26.224Z,1.53
2023-04-15T12:31:55.323Z,2.60
2023-04-15T12:34:33.008Z,0.90
2023-04-15T12:37:01.475Z,0.83
2023-04-15T12:39:31.096Z,1.37
2023-04-15T12:41:58.949Z,1.17
2023-04-15T12:44:25.967Z,1.13
2023-04-15T12:46:55.344Z,0.97
2023-04-15T12:49:22.991Z,1.10
2023-04-15T12:51:50.660Z,1.37
2023-04-15T12:54:17.988Z,1.00
2023-04-15T12:56:48.930Z,0.90
2023-04-15T12:59:16.190Z,1.03
2023-04-15T13:01:42.697Z,1.20
2023-04-15T13:04:09.533Z,1.10
2023-04-15T13:06:36.816Z,1.20
2023-04-15T13:09:05.640Z,0.93
2023-04-15T13:11:33.823Z,0.80
2023-04-15T13:14:08.362Z,2.73
2023-04-15T13:16:35.982Z,1.30
2023-04-15T13:19:03.475Z,1.20
2023-04-15T13:21:31.278Z,0.90
2023-04-15T13:23:57.718Z,1.20
2023-04-15T13:26:24.205Z,2.07
2023-04-15T13:28:50.584Z,1.40
2023-04-15T13:31:17.070Z,1.40
2023-04-15T13:33:43.469Z,1.73
2023-04-15T13:36:09.976Z,1.40
2023-04-15T13:38:36.372Z,1.20
2023-04-15T13:41:02.767Z,1.03
2023-04-15T13:43:29.176Z,1.40
2023-04-15T13:45:56.569Z,1.27
2023-04-15T13:48:22.989Z,1.30
2023-04-15T13:50:49.362Z,1.43
2023-04-15T13:53:15.767Z,1.40
2023-04-15T13:55:42.768Z,1.50
2023-04-15T13:58:10.235Z,2.00
2023-04-15T14:00:36.706Z,2.13
2023-04-15T14:03:03.504Z,1.70
2023-04-15T14:05:30.325Z,2.07
2023-04-15T14:07:56.780Z,2.40
2023-04-15T14:10:23.158Z,4.07
2023-04-15T14:12:49.707Z,2.83
2023-04-15T14:15:16.247Z,2.20
2023-04-15T14:17:43.190Z,2.10
2023-04-15T14:20:10.069Z,2.57
2023-04-15T14:22:36.519Z,2.20
2023-04-15T14:25:03.106Z,2.20
2023-04-15T14:27:29.469Z,2.20
2023-04-15T14:29:56.306Z,2.37
2023-04-15T14:32:22.693Z,2.20
2023-04-15T14:34:49.134Z,2.30
2023-04-15T14:37:15.514Z,2.20
2023-04-15T14:39:41.870Z,2.47
2023-04-15T14:42:08.337Z,2.17
2023-04-15T14:44:34.805Z,2.00
2023-04-15T14:47:01.292Z,2.13
2023-04-15T14:49:27.730Z,2.40
2023-04-15T14:51:54.087Z,3.53
2023-04-15T14:54:22.353Z,3.50
2023-04-15T14:56:48.978Z,2.97
2023-04-15T14:59:15.706Z,3.03
2023-04-15T15:01:42.130Z,2.70
2023-04-15T15:04:10.816Z,3.20
2023-04-15T15:06:37.395Z,3.77
2023-04-15T15:09:04.623Z,3.90
2023-04-15T15:11:31.728Z,3.20
2023-04-15T15:13:58.567Z,3.40
2023-04-15T15:16:25.130Z,3.57
2023-04-15T15:18:51.636Z,2.77
2023-04-15T15:21:18.444Z,3.20
2023-04-15T15:23:45.260Z,3.10
2023-04-15T15:26:12.317Z,2.70
2023-04-15T15:28:39.125Z,2.80
2023-04-15T15:31:05.929Z,2.57
2023-04-15T15:33:32.733Z,2.57
2023-04-15T15:35:59.252Z,3.03
2023-04-15T15:38:26.554Z,3.27
2023-04-15T15:40:52.904Z,2.50
2023-04-15T15:43:19.339Z,2.67
2023-04-15T15:45:46.180Z,2.60
2023-04-15T15:48:12.627Z,2.67
2023-04-15T15:50:39.139Z,3.23
2023-04-15T15:53:05.597Z,15.37
2023-04-15T15:55:32.039Z,4.30
2023-04-15T15:57:58.421Z,2.90
2023-04-15T16:00:24.796Z,2.83
2023-04-15T16:03:06.642Z,3.07
2023-04-15T16:05:34.015Z,2.80
2023-04-15T16:08:00.391Z,3.23
2023-04-15T16:10:26.822Z,4.07
2023-04-15T16:12:53.322Z,3.80
2023-04-15T16:15:19.843Z,2.93
2023-04-15T16:17:46.338Z,3.30
2023-04-15T16:20:12.760Z,4.13
2023-04-15T16:22:39.371Z,3.83
2023-04-15T16:25:06.162Z,3.50
2023-04-15T16:27:33.810Z,3.97
2023-04-15T16:30:01.513Z,4.00
2023-04-15T16:32:27.935Z,3.60
2023-04-15T16:34:54.412Z,3.10
2023-04-15T16:37:21.469Z,4.47
2023-04-15T16:39:47.963Z,3.70
2023-04-15T16:42:14.412Z,2.97
2023-04-15T16:44:40.936Z,2.90
2023-04-15T16:47:11.036Z,3.17
2023-04-15T16:49:38.251Z,3.30
2023-04-15T16:52:04.678Z,2.83
2023-04-15T16:54:32.714Z,3.87
2023-04-15T16:56:59.165Z,3.17
2023-04-15T16:59:25.900Z,3.83
2023-04-15T17:01:52.560Z,3.00
2023-04-15T17:04:19.179Z,3.87
2023-04-15T17:06:46.045Z,2.30
2023-04-15T17:09:12.411Z,2.97
2023-04-15T17:11:40.556Z,3.30
2023-04-15T17:14:07.443Z,3.17
2023-04-15T17:16:33.874Z,3.90
2023-04-15T17:19:00.309Z,3.17
2023-04-15T17:21:27.438Z,2.77
2023-04-15T17:23:53.903Z,3.77
2023-04-15T17:26:20.292Z,3.10
2023-04-15T17:28:46.650Z,3.93
2023-04-15T17:31:13.126Z,3.50
2023-04-15T17:33:55.780Z,3.37
2023-04-15T17:36:27.081Z,3.10
2023-04-15T17:38:56.387Z,2.80
2023-04-15T17:41:23.336Z,3.80
2023-04-15T17:43:49.737Z,3.40
2023-04-15T17:46:16.260Z,3.10
2023-04-15T17:48:42.967Z,3.60
2023-04-15T17:51:09.728Z,3.60
2023-04-15T17:53:36.120Z,4.20
2023-04-15T17:56:02.546Z,3.80
2023-04-15T17:58:28.898Z,3.50
2023-04-15T18:00:55.312Z,5.70
2023-04-15T18:03:22.116Z,4.00
2023-04-15T18:05:48.721Z,4.10
2023-04-15T18:08:15.140Z,4.20
2023-04-15T18:10:41.549Z,5.27
2023-04-15T18:13:07.907Z,4.23
2023-04-15T18:15:34.680Z,5.77
2023-04-15T18:18:01.246Z,5.10
2023-04-15T18:20:28.051Z,5.57
2023-04-15T18:22:55.616Z,5.83
2023-04-15T18:25:22.006Z,5.87
2023-04-15T18:27:48.754Z,5.53
2023-04-15T18:30:15.157Z,5.70
2023-04-15T18:32:41.964Z,5.30
2023-04-15T18:35:08.742Z,5.13
2023-04-15T18:37:35.437Z,5.53
2023-04-15T18:40:01.897Z,5.20
2023-04-15T18:42:28.308Z,5.80
2023-04-15T18:44:54.980Z,5.03
2023-04-15T18:47:21.419Z,5.40
2023-04-15T18:49:47.845Z,4.97
2023-04-15T18:52:14.843Z,5.07
2023-04-15T18:54:41.244Z,4.40
2023-04-15T18:57:07.648Z,6.07
2023-04-15T18:59:34.380Z,4.83
2023-04-15T19:02:02.019Z,4.50
2023-04-15T19:04:29.368Z,4.67
2023-04-15T19:06:56.109Z,4.33
2023-04-15T19:09:22.572Z,5.17
2023-04-15T19:11:48.974Z,6.03
2023-04-15T19:14:15.350Z,5.73
2023-04-15T19:16:41.806Z,6.80
2023-04-15T19:19:08.266Z,5.80
2023-04-15T19:21:34.856Z,5.60
2023-04-15T19:24:01.492Z,7.00
2023-04-15T19:26:28.058Z,6.73
2023-04-15T19:28:56.376Z,5.40
2023-04-15T19:31:22.848Z,5.43
2023-04-15T19:33:49.441Z,6.37
2023-04-15T19:36:16.025Z,5.70
2023-04-15T19:38:42.459Z,6.03
2023-04-15T19:41:10.321Z,5.17
2023-04-15T19:43:36.838Z,5.77
2023-04-15T19:46:03.270Z,6.70
2023-04-15T19:48:29.788Z,4.30
2023-04-15T19:50:57.290Z,4.17
2023-04-15T19:53:25.550Z,5.10
2023-04-15T19:55:52.040Z,5.03
2023-04-15T19:58:18.622Z,5.90
2023-04-15T20:00:45.024Z,5.17
2023-04-15T20:03:11.684Z,5.13
2023-04-15T20:05:38.177Z,5.77
2023-04-15T20:08:04.708Z,6.13
2023-04-15T20:10:31.898Z,5.77
2023-04-15T20:12:58.867Z,6.27
2023-04-15T20:15:25.308Z,5.37
2023-04-15T20:17:51.800Z,5.33
2023-04-15T20:20:18.542Z,5.80
2023-04-15T20:22:45.395Z,5.97
2023-04-15T20:25:11.876Z,6.00
2023-04-15T20:27:38.544Z,6.30
2023-04-15T20:30:05.704Z,5.57
2023-04-15T20:32:36.250Z,5.87
2023-04-15T20:35:04.388Z,6.57
2023-04-15T20:37:33.045Z,6.70
2023-04-15T20:40:00.626Z,6.33
2023-04-15T20:42:27.024Z,5.77
2023-04-15T20:44:53.402Z,5.27
2023-04-15T20:47:20.346Z,5.77
2023-04-15T20:49:47.417Z,5.90
2023-04-15T20:52:13.880Z,5.90
2023-04-15T20:54:40.644Z,6.90
2023-04-15T20:57:07.019Z,6.57
2023-04-15T20:59:34.672Z,6.67
2023-04-15T21:02:01.351Z,6.03
2023-04-15T21:04:27.828Z,5.47
2023-04-15T21:06:54.206Z,6.30
2023-04-15T21:09:20.988Z,5.20
2023-04-15T21:12:00.333Z,5.27
2023-04-15T21:14:27.753Z,5.40
2023-04-15T21:16:54.192Z,5.37
2023-04-15T21:19:20.637Z,5.73
2023-04-15T21:21:47.028Z,5.30
2023-04-15T21:24:13.740Z,6.70
2023-04-15T21:26:40.637Z,5.93
2023-04-15T21:29:10.483Z,5.60
2023-04-15T21:31:37.926Z,5.70
2023-04-15T21:34:04.443Z,5.67
2023-04-15T21:36:31.598Z,6.10
2023-04-15T21:38:58.360Z,7.23
2023-04-15T21:41:24.870Z,6.07
2023-04-15T21:43:51.672Z,6.17
2023-04-15T21:46:23.292Z,6.23
2023-04-15T21:48:52.638Z,6.17
2023-04-15T21:51:19.062Z,6.00
2023-04-15T21:53:45.871Z,6.03
2023-04-15T21:56:12.257Z,6.83
2023-04-15T21:58:38.634Z,6.23
2023-04-15T22:01:06.036Z,6.37
2023-04-15T22:03:34.693Z,6.20
2023-04-15T22:06:03.415Z,5.73
2023-04-15T22:08:41.292Z,5.40
2023-04-15T22:11:19.032Z,5.90
2023-04-15T22:13:45.821Z,5.40
2023-04-15T22:16:12.212Z,6.00
2023-04-15T22:18:38.568Z,5.27
2023-04-15T22:21:04.964Z,6.07
2023-04-15T22:23:31.336Z,6.13
2023-04-15T22:25:59.128Z,6.23
2023-04-15T22:28:25.598Z,6.40
2023-04-15T22:30:54.512Z,5.60
2023-04-15T22:33:21.002Z,6.73
2023-04-15T22:35:47.401Z,6.00
2023-04-15T22:38:13.801Z,5.40
2023-04-15T22:40:40.499Z,6.10
2023-04-15T22:43:06.907Z,5.30
2023-04-15T22:45:33.287Z,6.17
2023-04-15T22:47:59.814Z,5.27
2023-04-15T22:50:26.379Z,5.27
2023-04-15T22:52:52.750Z,5.03
2023-04-15T22:55:19.147Z,6.77
2023-04-15T22:57:45.548Z,5.33
2023-04-15T23:00:12.351Z,5.87
2023-04-15T23:02:38.846Z,6.53
2023-04-15T23:05:11.997Z,6.07
2023-04-15T23:07:39.146Z,5.70
2023-04-15T23:10:06.449Z,9.03
2023-04-15T23:12:32.893Z,5.83
2023-04-15T23:14:59.292Z,7.30
2023-04-15T23:17:26.608Z,7.80
2023-04-15T23:19:53.098Z,7.07
2023-04-15T23:22:19.554Z,6.10
2023-04-15T23:24:46.196Z,6.50
2023-04-15T23:27:12.554Z,6.43
2023-04-15T23:29:38.931Z,6.40
2023-04-15T23:32:05.786Z,5.83
2023-04-15T23:34:32.205Z,6.13
2023-04-15T23:36:58.564Z,6.57
2023-04-15T23:39:24.971Z,6.17
2023-04-15T23:41:52.183Z,6.97
2023-04-15T23:44:18.883Z,7.17
2023-04-15T23:46:45.769Z,6.30
2023-04-15T23:49:12.353Z,6.93
2023-04-15T23:51:38.732Z,9.17
2023-04-15T23:54:05.197Z,8.07
2023-04-15T23:56:32.164Z,6.90
2023-04-15T23:58:58.546Z,7.90
